Time;durP1;ratioP1;P1;durP2;ratioP2;P2;SDS_P1;SDS_P2;PMS_P1;PMS_P2;Temp;Humidity;BMP_temperature;BMP_pressure;BME280_temperature;BME280_humidity;BME280_pressure;Samples;Min_cycle;Max_cycle;Signal;HPM_P1;HPM_P2
2022/11/30 00:00:01;;;;;;;85.70;32.88;;;;;;;;;;5060284;28;20431;-83
2022/11/30 00:02:38;;;;;;;92.22;35.58;;;;;;;;;;5077775;28;20413;-82
2022/11/30 00:05:08;;;;;;;83.60;34.72;;;;;;;;;;5077567;28;20429;-82
2022/11/30 00:07:36;;;;;;;89.03;33.88;;;;;;;;;;5056847;28;20413;-82
2022/11/30 00:10:04;;;;;;;87.35;33.47;;;;;;;;;;5068440;28;20431;-83
2022/11/30 00:12:40;;;;;;;85.75;34.88;;;;;;;;;;5068034;28;20433;-82
2022/11/30 00:15:16;;;;;;;90.38;34.97;;;;;;;;;;5073520;28;20922;-83
2022/11/30 00:17:49;;;;;;;94.43;34.05;;;;;;;;;;5064085;28;20436;-82
2022/11/30 00:20:18;;;;;;;88.30;34.88;;;;;;;;;;5068641;28;20436;-83
2022/11/30 00:22:46;;;;;;;89.85;35.05;;;;;;;;;;5057502;28;20438;-84
2022/11/30 00:25:13;;;;;;;91.60;34.72;;;;;;;;;;5064032;28;20415;-82
2022/11/30 00:27:41;;;;;;;86.57;34.43;;;;;;;;;;5065321;28;20413;-83
2022/11/30 00:30:15;;;;;;;88.87;33.83;;;;;;;;;;5064632;28;20419;-83
2022/11/30 00:32:47;;;;;;;86.03;34.63;;;;;;;;;;5066808;28;20410;-82
2022/11/30 00:35:16;;;;;;;88.57;33.47;;;;;;;;;;5073768;28;20885;-82
2022/11/30 00:37:50;;;;;;;86.47;34.28;;;;;;;;;;5054183;28;20417;-82
2022/11/30 00:40:18;;;;;;;88.33;34.37;;;;;;;;;;5057224;28;20432;-82
2022/11/30 00:42:46;;;;;;;81.50;33.40;;;;;;;;;;5067839;28;20434;-82
2022/11/30 00:45:14;;;;;;;85.18;33.65;;;;;;;;;;5070303;28;20898;-82
2022/11/30 00:47:46;;;;;;;84.68;33.78;;;;;;;;;;5079690;28;20458;-82
2022/11/30 00:50:14;;;;;;;89.55;34.15;;;;;;;;;;5058305;28;20409;-82
2022/11/30 00:52:47;;;;;;;88.63;34.47;;;;;;;;;;5073223;28;20429;-82
2022/11/30 00:55:21;;;;;;;84.60;33.08;;;;;;;;;;5076854;28;20423;-83
2022/11/30 00:57:49;;;;;;;82.97;33.65;;;;;;;;;;5066402;28;20419;-82
2022/11/30 01:00:17;;;;;;;88.85;34.20;;;;;;;;;;5062247;28;20440;-83
2022/11/30 01:02:53;;;;;;;80.07;32.20;;;;;;;;;;5067322;28;20417;-83
2022/11/30 01:05:21;;;;;;;86.97;33.65;;;;;;;;;;5069009;28;20419;-84
2022/11/30 01:07:54;;;;;;;90.75;33.20;;;;;;;;;;5066416;28;20902;-82
2022/11/30 01:10:23;;;;;;;83.18;32.30;;;;;;;;;;5069400;28;21118;-82
2022/11/30 01:12:56;;;;;;;87.28;33.30;;;;;;;;;;5060930;28;20421;-82
2022/11/30 01:15:24;;;;;;;93.78;34.40;;;;;;;;;;5060166;28;20771;-81
2022/11/30 01:17:52;;;;;;;89.60;35.22;;;;;;;;;;5060132;28;20440;-83
2022/11/30 01:20:25;;;;;;;87.78;34.30;;;;;;;;;;5073161;28;20430;-83
2022/11/30 01:22:54;;;;;;;90.80;33.80;;;;;;;;;;5075331;28;20466;-83
2022/11/30 01:25:23;;;;;;;94.30;35.10;;;;;;;;;;5072109;28;20424;-81
2022/11/30 01:27:51;;;;;;;94.53;34.50;;;;;;;;;;5065556;28;20913;-82
2022/11/30 01:30:24;;;;;;;96.05;35.10;;;;;;;;;;5066996;28;20437;-82
2022/11/30 01:32:52;;;;;;;93.07;35.30;;;;;;;;;;5070522;28;20419;-82
2022/11/30 01:35:20;;;;;;;94.70;34.60;;;;;;;;;;5072168;28;20427;-83
2022/11/30 01:37:53;;;;;;;85.13;34.33;;;;;;;;;;5063807;28;20822;-84
2022/11/30 01:40:21;;;;;;;91.70;35.37;;;;;;;;;;5073453;28;20424;-84
2022/11/30 01:42:50;;;;;;;87.07;34.42;;;;;;;;;;5066211;28;20431;-82
2022/11/30 01:45:23;;;;;;;97.80;34.95;;;;;;;;;;5061337;28;20437;-82
2022/11/30 01:47:56;;;;;;;93.47;34.42;;;;;;;;;;5073271;28;20430;-81
2022/11/30 01:50:27;;;;;;;91.60;34.13;;;;;;;;;;5068880;28;20411;-81
2022/11/30 01:53:01;;;;;;;87.18;34.92;;;;;;;;;;5059025;28;20422;-81
2022/11/30 01:55:35;;;;;;;93.07;34.70;;;;;;;;;;5058828;28;20946;-81
2022/11/30 01:58:11;;;;;;;101.73;36.07;;;;;;;;;;5058991;28;20478;-82
2022/11/30 02:00:45;;;;;;;98.57;34.67;;;;;;;;;;5069295;28;20429;-83
2022/11/30 02:03:17;;;;;;;94.38;36.08;;;;;;;;;;5067702;28;20425;-83
2022/11/30 02:05:45;;;;;;;98.53;34.92;;;;;;;;;;5069290;28;20433;-82
2022/11/30 02:08:18;;;;;;;106.03;36.17;;;;;;;;;;5055688;28;20433;-83
2022/11/30 02:10:49;;;;;;;99.68;35.17;;;;;;;;;;5062835;28;20441;-81
2022/11/30 02:13:26;;;;;;;97.45;35.38;;;;;;;;;;5061389;28;20437;-81
2022/11/30 02:15:58;;;;;;;98.90;35.47;;;;;;;;;;5071713;28;20515;-81
2022/11/30 02:18:30;;;;;;;106.47;35.88;;;;;;;;;;5065815;28;20424;-82
2022/11/30 02:21:06;;;;;;;97.57;35.40;;;;;;;;;;5057696;28;20428;-83
2022/11/30 02:23:50;;;;;;;99.73;34.63;;;;;;;;;;5061108;28;20429;-82
2022/11/30 02:26:28;;;;;;;95.10;33.75;;;;;;;;;;5065390;28;20411;-82
2022/11/30 02:29:06;;;;;;;104.65;34.83;;;;;;;;;;5062122;28;20437;-82
2022/11/30 02:31:42;;;;;;;99.25;34.80;;;;;;;;;;5066653;28;20431;-81
2022/11/30 02:34:16;;;;;;;97.03;35.60;;;;;;;;;;5060213;28;20423;-82
2022/11/30 02:36:49;;;;;;;102.00;34.67;;;;;;;;;;5064143;28;20433;-81
2022/11/30 02:39:22;;;;;;;103.95;35.10;;;;;;;;;;5060738;28;20439;-81
2022/11/30 02:41:55;;;;;;;105.13;34.53;;;;;;;;;;5064297;28;20515;-81
2022/11/30 02:44:24;;;;;;;107.70;35.43;;;;;;;;;;5054871;28;20423;-83
2022/11/30 02:46:58;;;;;;;102.15;35.33;;;;;;;;;;5071601;28;20433;-82
2022/11/30 02:49:34;;;;;;;106.80;34.88;;;;;;;;;;5063133;28;20424;-82
2022/11/30 02:52:08;;;;;;;103.40;33.85;;;;;;;;;;5058976;28;20416;-83
2022/11/30 02:54:41;;;;;;;102.45;34.50;;;;;;;;;;5061352;28;20417;-83
2022/11/30 02:57:09;;;;;;;104.00;33.88;;;;;;;;;;5068277;28;20930;-82
2022/11/30 02:59:38;;;;;;;108.82;34.60;;;;;;;;;;5051201;28;20432;-83
2022/11/30 03:02:11;;;;;;;105.72;33.85;;;;;;;;;;5073654;28;20440;-82
2022/11/30 03:04:44;;;;;;;95.22;32.88;;;;;;;;;;5066006;28;20427;-82
2022/11/30 03:07:11;;;;;;;107.25;34.85;;;;;;;;;;5065826;28;20418;-81
2022/11/30 03:09:44;;;;;;;105.50;33.42;;;;;;;;;;5055989;28;20436;-82
2022/11/30 03:12:17;;;;;;;107.28;34.72;;;;;;;;;;5064024;28;20424;-82
2022/11/30 03:14:51;;;;;;;102.78;34.25;;;;;;;;;;5049684;28;20789;-82
2022/11/30 03:17:19;;;;;;;100.13;32.73;;;;;;;;;;5073613;28;20899;-82
2022/11/30 03:19:47;;;;;;;101.45;32.15;;;;;;;;;;5068355;28;20414;-82
2022/11/30 03:22:20;;;;;;;104.05;34.15;;;;;;;;;;5053625;28;20898;-81
2022/11/30 03:24:48;;;;;;;100.75;34.08;;;;;;;;;;5056465;28;20427;-81
2022/11/30 03:27:15;;;;;;;102.70;32.03;;;;;;;;;;5054836;28;20407;-82
2022/11/30 03:29:43;;;;;;;108.38;33.03;;;;;;;;;;5064141;28;20437;-81
2022/11/30 03:32:12;;;;;;;101.57;32.25;;;;;;;;;;5059541;28;20918;-83
2022/11/30 03:34:40;;;;;;;94.38;31.75;;;;;;;;;;5070178;28;20433;-82
2022/11/30 03:37:13;;;;;;;103.32;33.03;;;;;;;;;;5061804;28;20427;-82
2022/11/30 03:39:41;;;;;;;99.45;32.88;;;;;;;;;;5064982;28;20419;-82
2022/11/30 03:42:08;;;;;;;98.40;32.90;;;;;;;;;;5057269;28;20432;-83
2022/11/30 03:44:36;;;;;;;105.27;32.13;;;;;;;;;;5078533;28;20445;-81
2022/11/30 03:47:04;;;;;;;102.07;32.60;;;;;;;;;;5077513;28;20829;-82
2022/11/30 03:49:33;;;;;;;93.83;31.43;;;;;;;;;;5069281;28;20416;-82
2022/11/30 03:52:01;;;;;;;94.97;30.90;;;;;;;;;;5050895;28;20893;-81
2022/11/30 03:54:29;;;;;;;90.50;29.88;;;;;;;;;;5077924;28;20422;-82
2022/11/30 03:57:02;;;;;;;92.82;31.08;;;;;;;;;;5071157;28;20429;-84
2022/11/30 03:59:30;;;;;;;90.27;29.80;;;;;;;;;;5067044;28;20505;-82
2022/11/30 04:02:02;;;;;;;86.80;30.77;;;;;;;;;;5066682;28;20423;-82
2022/11/30 04:04:30;;;;;;;86.70;31.10;;;;;;;;;;5061574;28;20782;-82
2022/11/30 04:07:00;;;;;;;86.00;30.25;;;;;;;;;;5082656;28;20410;-81
2022/11/30 04:09:32;;;;;;;84.80;29.77;;;;;;;;;;5079683;28;20410;-82
2022/11/30 04:12:00;;;;;;;74.75;28.33;;;;;;;;;;5065624;28;20421;-82
2022/11/30 04:14:28;;;;;;;86.32;28.80;;;;;;;;;;5069909;28;20423;-82
2022/11/30 04:17:01;;;;;;;76.28;29.08;;;;;;;;;;5070559;28;20428;-81
2022/11/30 04:19:34;;;;;;;87.75;30.38;;;;;;;;;;5077776;28;20413;-83
2022/11/30 04:22:08;;;;;;;82.75;28.75;;;;;;;;;;5070632;28;20429;-81
2022/11/30 04:24:35;;;;;;;72.43;27.90;;;;;;;;;;5071257;28;20452;-82
2022/11/30 04:27:08;;;;;;;74.68;27.80;;;;;;;;;;5069736;28;20913;-85
2022/11/30 04:29:36;;;;;;;74.78;27.70;;;;;;;;;;5075836;28;20409;-83
2022/11/30 04:32:09;;;;;;;75.47;28.90;;;;;;;;;;5054106;28;20429;-84
2022/11/30 04:34:37;;;;;;;81.60;29.35;;;;;;;;;;5067533;28;20758;-82
2022/11/30 04:37:04;;;;;;;70.18;28.33;;;;;;;;;;5074739;28;20440;-81
2022/11/30 04:39:34;;;;;;;79.18;29.98;;;;;;;;;;5074056;28;20421;-81
2022/11/30 04:42:07;;;;;;;78.55;30.25;;;;;;;;;;5076742;28;20428;-83
2022/11/30 04:44:39;;;;;;;73.82;29.10;;;;;;;;;;5064402;28;20438;-82
2022/11/30 04:47:12;;;;;;;71.95;27.63;;;;;;;;;;5075028;28;20422;-82
2022/11/30 04:49:45;;;;;;;77.07;28.50;;;;;;;;;;5064374;28;20425;-82
2022/11/30 04:52:13;;;;;;;76.22;29.23;;;;;;;;;;5059806;28;20894;-81
2022/11/30 04:54:47;;;;;;;77.40;28.98;;;;;;;;;;5057832;28;20429;-82
2022/11/30 04:57:20;;;;;;;76.77;29.47;;;;;;;;;;5075978;28;21043;-81
2022/11/30 04:59:53;;;;;;;73.35;27.25;;;;;;;;;;5066964;28;20424;-81
2022/11/30 05:02:21;;;;;;;71.28;26.33;;;;;;;;;;5064832;28;20421;-82
2022/11/30 05:04:53;;;;;;;71.97;27.02;;;;;;;;;;5065313;28;20421;-82
2022/11/30 05:07:26;;;;;;;72.50;27.35;;;;;;;;;;5077436;28;20772;-82
2022/11/30 05:09:56;;;;;;;74.68;28.23;;;;;;;;;;5061838;28;20421;-81
2022/11/30 05:12:28;;;;;;;75.33;27.53;;;;;;;;;;5072026;28;20806;-83
2022/11/30 05:15:01;;;;;;;79.80;29.10;;;;;;;;;;5068131;28;20417;-82
2022/11/30 05:17:29;;;;;;;81.13;28.88;;;;;;;;;;5077509;28;20431;-81
2022/11/30 05:19:57;;;;;;;69.03;26.67;;;;;;;;;;5068101;28;20454;-82
2022/11/30 05:22:30;;;;;;;75.03;27.90;;;;;;;;;;5073287;28;20421;-83
2022/11/30 05:24:59;;;;;;;78.00;28.10;;;;;;;;;;5078479;28;20437;-82
2022/11/30 05:27:34;;;;;;;71.73;27.47;;;;;;;;;;5064522;28;21081;-82
2022/11/30 05:30:07;;;;;;;65.88;27.10;;;;;;;;;;5068385;28;20429;-82
2022/11/30 05:32:40;;;;;;;69.35;27.20;;;;;;;;;;5065548;28;20429;-82
2022/11/30 05:35:08;;;;;;;65.22;25.52;;;;;;;;;;5054910;28;20426;-82
2022/11/30 05:37:36;;;;;;;67.80;26.25;;;;;;;;;;5070019;28;20955;-82
2022/11/30 05:40:06;;;;;;;64.53;25.88;;;;;;;;;;5053516;28;20433;-81
2022/11/30 05:42:39;;;;;;;69.10;27.38;;;;;;;;;;5059729;28;20426;-84
2022/11/30 05:45:07;;;;;;;62.83;25.55;;;;;;;;;;5070909;28;20899;-82
2022/11/30 05:47:35;;;;;;;66.73;25.53;;;;;;;;;;5070179;28;20426;-84
2022/11/30 05:50:03;;;;;;;60.17;24.77;;;;;;;;;;5060321;28;20440;-81
2022/11/30 05:52:31;;;;;;;61.28;24.30;;;;;;;;;;5082621;28;20418;-82
2022/11/30 05:54:59;;;;;;;61.45;25.17;;;;;;;;;;5067824;28;20417;-82
2022/11/30 05:57:28;;;;;;;61.50;25.38;;;;;;;;;;5067355;28;20440;-82
2022/11/30 06:00:01;;;;;;;55.88;24.02;;;;;;;;;;5063932;28;20444;-82
2022/11/30 06:02:38;;;;;;;56.17;24.60;;;;;;;;;;5067060;28;20432;-82
2022/11/30 06:05:06;;;;;;;58.40;24.55;;;;;;;;;;5068897;28;20433;-81
2022/11/30 06:07:34;;;;;;;58.05;23.98;;;;;;;;;;5060073;28;20796;-82
2022/11/30 06:10:02;;;;;;;55.13;23.58;;;;;;;;;;5067169;28;20414;-83
2022/11/30 06:12:36;;;;;;;54.20;23.77;;;;;;;;;;5063751;28;20427;-82
2022/11/30 06:15:09;;;;;;;60.38;23.85;;;;;;;;;;5066112;28;20442;-82
2022/11/30 06:17:37;;;;;;;54.40;22.60;;;;;;;;;;5064981;28;20438;-82
2022/11/30 06:20:10;;;;;;;56.50;23.77;;;;;;;;;;5072315;28;20426;-82
2022/11/30 06:22:38;;;;;;;52.95;22.88;;;;;;;;;;5056764;28;20816;-83
2022/11/30 06:25:11;;;;;;;55.15;24.13;;;;;;;;;;5063701;28;20431;-82
2022/11/30 06:27:42;;;;;;;51.67;23.45;;;;;;;;;;5058856;28;20445;-83
2022/11/30 06:30:10;;;;;;;54.08;22.92;;;;;;;;;;5067939;28;20455;-82
2022/11/30 06:32:38;;;;;;;57.38;23.85;;;;;;;;;;5068362;28;20787;-82
2022/11/30 06:35:11;;;;;;;54.53;23.03;;;;;;;;;;5063212;28;20432;-82
2022/11/30 06:37:39;;;;;;;55.00;23.57;;;;;;;;;;5068186;28;20765;-81
2022/11/30 06:40:07;;;;;;;52.60;23.13;;;;;;;;;;5075111;28;20794;-83
2022/11/30 06:42:36;;;;;;;57.00;22.40;;;;;;;;;;5061142;28;21011;-81
2022/11/30 06:45:06;;;;;;;52.53;23.17;;;;;;;;;;5057719;28;20436;-84
2022/11/30 06:47:39;;;;;;;49.72;22.10;;;;;;;;;;5059976;28;20423;-82
2022/11/30 06:50:08;;;;;;;50.70;22.52;;;;;;;;;;5075395;28;20417;-82
2022/11/30 06:52:36;;;;;;;49.00;22.13;;;;;;;;;;5058215;28;20431;-82
2022/11/30 06:55:09;;;;;;;52.90;22.63;;;;;;;;;;5058723;28;20423;-83
2022/11/30 06:57:37;;;;;;;50.70;23.20;;;;;;;;;;5058937;28;20432;-82
2022/11/30 07:00:12;;;;;;;54.13;23.77;;;;;;;;;;5060645;28;20929;-82
2022/11/30 07:02:40;;;;;;;53.50;23.73;;;;;;;;;;5065265;28;20432;-81
2022/11/30 07:05:13;;;;;;;53.42;22.67;;;;;;;;;;5054961;28;20448;-84
2022/11/30 07:07:46;;;;;;;48.83;22.10;;;;;;;;;;5070051;28;20772;-81
2022/11/30 07:10:21;;;;;;;48.33;21.85;;;;;;;;;;5060354;28;20437;-82
2022/11/30 07:12:54;;;;;;;52.70;21.45;;;;;;;;;;5071015;28;20790;-82
2022/11/30 07:15:23;;;;;;;49.55;21.80;;;;;;;;;;5059528;28;20429;-82
2022/11/30 07:17:59;;;;;;;49.97;22.23;;;;;;;;;;5058372;28;20415;-81
2022/11/30 07:20:33;;;;;;;48.35;21.80;;;;;;;;;;5086898;28;20456;-83
2022/11/30 07:26:05;;;;;;;46.53;21.05;;;;;;;;;;5054544;28;20940;-82
2022/11/30 07:26:05;;;;;;;46.00;21.77;;;;;;;;;;5074484;28;20432;-81
2022/11/30 07:28:38;;;;;;;47.33;21.10;;;;;;;;;;5077162;28;20418;-82
2022/11/30 07:31:17;;;;;;;45.15;21.20;;;;;;;;;;5081023;28;20425;-83
2022/11/30 07:33:51;;;;;;;45.47;21.67;;;;;;;;;;5056361;28;20977;-81
2022/11/30 07:36:20;;;;;;;44.40;20.52;;;;;;;;;;5079819;28;20413;-82
2022/11/30 07:38:48;;;;;;;45.03;20.73;;;;;;;;;;5064895;28;20434;-82
2022/11/30 07:41:15;;;;;;;46.83;20.98;;;;;;;;;;5068144;28;20415;-83
2022/11/30 07:43:43;;;;;;;44.90;20.80;;;;;;;;;;5063349;28;20433;-81
2022/11/30 07:46:12;;;;;;;42.72;20.33;;;;;;;;;;5072505;28;20436;-81
2022/11/30 07:48:42;;;;;;;40.80;20.13;;;;;;;;;;5081649;28;20437;-82
2022/11/30 07:51:12;;;;;;;44.45;20.25;;;;;;;;;;5067900;28;20422;-82
2022/11/30 07:53:39;;;;;;;41.72;19.70;;;;;;;;;;5067405;28;20413;-81
2022/11/30 07:56:08;;;;;;;42.03;19.60;;;;;;;;;;5056938;28;20429;-84
2022/11/30 07:58:36;;;;;;;44.25;20.88;;;;;;;;;;5069098;28;20414;-83
2022/11/30 08:01:04;;;;;;;42.65;19.42;;;;;;;;;;5058124;28;20428;-82
2022/11/30 08:03:33;;;;;;;44.42;19.73;;;;;;;;;;5071283;28;20413;-85
2022/11/30 08:06:03;;;;;;;40.60;19.60;;;;;;;;;;5076659;28;20415;-83
2022/11/30 08:08:31;;;;;;;43.90;20.23;;;;;;;;;;5066815;28;20424;-83
2022/11/30 08:10:59;;;;;;;41.05;20.08;;;;;;;;;;5066112;28;20421;-83
2022/11/30 08:13:27;;;;;;;40.50;19.23;;;;;;;;;;5059457;28;20428;-83
2022/11/30 08:15:55;;;;;;;43.42;20.08;;;;;;;;;;5054319;28;20429;-83
2022/11/30 08:18:23;;;;;;;46.10;20.30;;;;;;;;;;5066824;28;20421;-84
2022/11/30 08:20:57;;;;;;;42.08;19.65;;;;;;;;;;5060851;28;20927;-85
2022/11/30 08:23:31;;;;;;;43.22;20.52;;;;;;;;;;5073090;28;20430;-82
2022/11/30 08:26:02;;;;;;;46.33;20.15;;;;;;;;;;5057429;28;20431;-84
2022/11/30 08:28:35;;;;;;;44.65;19.92;;;;;;;;;;5058405;28;20408;-85
2022/11/30 08:31:10;;;;;;;45.88;20.73;;;;;;;;;;5054432;28;20431;-85
2022/11/30 08:33:42;;;;;;;43.45;19.98;;;;;;;;;;5052126;28;20424;-84
2022/11/30 08:36:12;;;;;;;40.80;20.23;;;;;;;;;;5049216;28;20462;-84
2022/11/30 08:38:47;;;;;;;44.63;19.73;;;;;;;;;;5047555;28;20423;-84
2022/11/30 08:41:16;;;;;;;45.65;20.75;;;;;;;;;;5054334;28;20938;-83
2022/11/30 08:43:44;;;;;;;48.63;21.23;;;;;;;;;;5045731;28;20919;-87
2022/11/30 08:46:18;;;;;;;46.00;20.05;;;;;;;;;;5043317;28;20933;-86
2022/11/30 08:48:45;;;;;;;46.35;20.75;;;;;;;;;;5045195;28;20436;-84
2022/11/30 08:51:19;;;;;;;45.08;20.90;;;;;;;;;;5047173;28;20423;-86
2022/11/30 08:53:48;;;;;;;46.72;21.65;;;;;;;;;;5047865;28;20434;-86
2022/11/30 08:56:17;;;;;;;45.75;21.35;;;;;;;;;;5048993;28;20435;-85
2022/11/30 08:58:46;;;;;;;45.27;21.90;;;;;;;;;;5046682;28;20443;-85
2022/11/30 09:01:14;;;;;;;47.80;20.52;;;;;;;;;;5041484;28;20450;-85
2022/11/30 09:03:42;;;;;;;45.80;20.73;;;;;;;;;;5042873;28;20427;-86
2022/11/30 09:06:17;;;;;;;46.85;21.20;;;;;;;;;;5049157;28;20979;-89
2022/11/30 09:08:45;;;;;;;44.63;21.38;;;;;;;;;;5053392;28;20438;-87
2022/11/30 09:11:16;;;;;;;43.65;20.17;;;;;;;;;;5053570;28;20439;-87
2022/11/30 09:13:43;;;;;;;46.42;21.50;;;;;;;;;;5053440;28;20435;-87
2022/11/30 09:16:17;;;;;;;46.25;20.85;;;;;;;;;;5046689;28;20428;-88
2022/11/30 09:18:45;;;;;;;45.10;20.60;;;;;;;;;;5069309;28;20957;-89
2022/11/30 09:21:14;;;;;;;46.95;21.50;;;;;;;;;;5052892;28;20426;-87
2022/11/30 09:23:47;;;;;;;48.25;22.20;;;;;;;;;;5054786;28;20432;-87
2022/11/30 09:26:17;;;;;;;51.97;23.02;;;;;;;;;;5036255;28;21479;-87
2022/11/30 09:28:46;;;;;;;49.83;22.27;;;;;;;;;;5044196;28;20433;-89
2022/11/30 09:31:14;;;;;;;51.05;21.15;;;;;;;;;;5044943;28;20750;-91
2022/11/30 09:33:42;;;;;;;52.35;23.02;;;;;;;;;;5053107;28;20435;-86
2022/11/30 09:36:11;;;;;;;50.67;22.58;;;;;;;;;;5054832;28;20427;-86
2022/11/30 09:38:41;;;;;;;50.72;23.00;;;;;;;;;;5058167;28;20431;-87
2022/11/30 09:41:19;;;;;;;55.03;22.98;;;;;;;;;;5046709;28;20430;-88
2022/11/30 09:43:52;;;;;;;58.87;24.30;;;;;;;;;;5060454;28;20516;-86
2022/11/30 09:46:26;;;;;;;54.63;22.67;;;;;;;;;;5049361;28;20431;-89
2022/11/30 09:48:56;;;;;;;57.35;24.30;;;;;;;;;;5048967;28;21004;-85
2022/11/30 09:51:26;;;;;;;59.47;23.83;;;;;;;;;;5047936;28;20441;-88
2022/11/30 09:53:56;;;;;;;58.22;24.33;;;;;;;;;;5049546;28;20427;-84
2022/11/30 09:56:25;;;;;;;60.35;24.08;;;;;;;;;;5048484;28;20942;-87
2022/11/30 09:59:02;;;;;;;58.08;24.58;;;;;;;;;;5056530;28;20416;-85
2022/11/30 10:01:30;;;;;;;61.72;24.75;;;;;;;;;;5049560;28;20520;-86
2022/11/30 10:04:03;;;;;;;61.95;24.60;;;;;;;;;;5060285;28;20420;-86
2022/11/30 10:06:34;;;;;;;62.45;25.50;;;;;;;;;;5055490;28;20434;-90
2022/11/30 10:09:25;;;;;;;66.95;26.70;;;;;;;;;;5050239;28;21197;-85
2022/11/30 10:11:59;;;;;;;76.68;26.83;;;;;;;;;;5068303;28;21495;-86
2022/11/30 10:14:48;;;;;;;78.72;28.98;;;;;;;;;;5065911;28;20891;-89
2022/11/30 10:17:25;;;;;;;80.15;28.67;;;;;;;;;;5043792;28;20444;-85
2022/11/30 10:20:05;;;;;;;73.93;28.35;;;;;;;;;;5050513;28;20436;-85
2022/11/30 10:22:44;;;;;;;79.18;29.23;;;;;;;;;;5069915;28;20432;-84
2022/11/30 10:25:21;;;;;;;83.88;29.02;;;;;;;;;;5053677;28;20430;-89
2022/11/30 10:27:49;;;;;;;85.25;28.13;;;;;;;;;;5049238;28;20436;-85
2022/11/30 10:30:23;;;;;;;86.82;30.60;;;;;;;;;;5055684;28;21045;-87
2022/11/30 10:33:05;;;;;;;88.68;29.15;;;;;;;;;;5049370;28;20435;-87
2022/11/30 10:35:40;;;;;;;79.85;28.55;;;;;;;;;;5056898;28;20428;-85
2022/11/30 10:38:15;;;;;;;87.28;30.13;;;;;;;;;;5047915;28;20415;-86
2022/11/30 10:40:50;;;;;;;86.68;29.48;;;;;;;;;;5051494;28;20778;-87
2022/11/30 10:43:27;;;;;;;85.25;29.42;;;;;;;;;;5040091;28;20446;-87
2022/11/30 10:45:55;;;;;;;81.60;29.60;;;;;;;;;;5049323;28;20902;-87
2022/11/30 10:48:28;;;;;;;79.25;29.30;;;;;;;;;;5046200;28;20415;-86
2022/11/30 10:50:56;;;;;;;76.35;28.35;;;;;;;;;;5052520;28;21460;-88
2022/11/30 10:53:24;;;;;;;85.53;30.40;;;;;;;;;;5053271;28;20436;-86
2022/11/30 10:55:56;;;;;;;80.47;28.43;;;;;;;;;;5053387;28;20526;-90
2022/11/30 10:58:26;;;;;;;80.70;29.53;;;;;;;;;;5051318;28;20446;-88
2022/11/30 11:01:01;;;;;;;87.88;30.83;;;;;;;;;;5050565;28;20432;-88
2022/11/30 11:03:36;;;;;;;83.70;29.20;;;;;;;;;;5058034;28;20439;-88
2022/11/30 11:06:15;;;;;;;98.75;30.13;;;;;;;;;;5051713;28;20428;-90
2022/11/30 11:08:44;;;;;;;84.38;30.90;;;;;;;;;;5053347;28;20415;-85
2022/11/30 11:11:28;;;;;;;90.18;30.80;;;;;;;;;;5045630;28;20810;-85
2022/11/30 11:14:08;;;;;;;86.65;30.52;;;;;;;;;;5070245;28;20899;-87
2022/11/30 11:16:48;;;;;;;91.72;30.48;;;;;;;;;;5055729;28;20791;-89
2022/11/30 11:19:24;;;;;;;89.20;31.58;;;;;;;;;;5046674;28;20934;-87
2022/11/30 11:21:52;;;;;;;86.03;29.70;;;;;;;;;;5050539;28;20427;-86
2022/11/30 11:24:25;;;;;;;89.10;30.55;;;;;;;;;;5048805;28;20485;-86
2022/11/30 11:26:58;;;;;;;86.05;30.58;;;;;;;;;;5047237;28;20435;-89
2022/11/30 11:29:31;;;;;;;91.20;30.67;;;;;;;;;;5044251;28;20431;-89
2022/11/30 11:32:06;;;;;;;90.25;31.63;;;;;;;;;;5060015;28;20432;-89
2022/11/30 11:34:41;;;;;;;91.00;31.05;;;;;;;;;;5045785;28;20431;-86
2022/11/30 11:37:14;;;;;;;90.07;31.10;;;;;;;;;;5052858;28;20420;-86
2022/11/30 11:39:41;;;;;;;84.80;30.73;;;;;;;;;;5050091;28;20431;-85
2022/11/30 11:42:16;;;;;;;94.23;31.47;;;;;;;;;;5043996;28;20486;-88
2022/11/30 11:44:50;;;;;;;95.95;31.83;;;;;;;;;;5042408;28;21865;-84
2022/11/30 11:47:24;;;;;;;96.88;32.28;;;;;;;;;;5048230;28;20879;-88
2022/11/30 11:50:21;;;;;;;95.00;30.77;;;;;;;;;;5044232;28;20423;-85
2022/11/30 11:53:05;;;;;;;95.07;31.50;;;;;;;;;;5041943;28;21487;-87
2022/11/30 11:55:39;;;;;;;99.25;32.80;;;;;;;;;;5046636;28;20427;-86
2022/11/30 11:58:15;;;;;;;93.05;32.17;;;;;;;;;;5047423;28;20436;-88
2022/11/30 12:00:43;;;;;;;90.63;31.13;;;;;;;;;;5052208;28;20428;-84
2022/11/30 12:03:17;;;;;;;100.13;31.65;;;;;;;;;;5049115;28;20424;-85
2022/11/30 12:05:52;;;;;;;109.15;33.30;;;;;;;;;;5044802;28;20432;-83
2022/11/30 12:08:27;;;;;;;96.47;31.92;;;;;;;;;;5047936;28;21816;-87
2022/11/30 12:10:58;;;;;;;108.72;32.30;;;;;;;;;;5050292;28;20435;-85
2022/11/30 12:13:32;;;;;;;100.57;31.48;;;;;;;;;;5051888;28;20450;-84
2022/11/30 12:16:09;;;;;;;101.00;31.73;;;;;;;;;;5054145;28;20431;-87
2022/11/30 12:18:45;;;;;;;96.27;32.27;;;;;;;;;;5051871;28;22021;-83
2022/11/30 12:21:23;;;;;;;101.03;32.30;;;;;;;;;;5045824;28;20443;-88
2022/11/30 12:24:08;;;;;;;105.63;32.25;;;;;;;;;;5048983;28;20435;-85
2022/11/30 12:26:40;;;;;;;102.88;31.13;;;;;;;;;;5041509;28;20442;-84
2022/11/30 12:29:24;;;;;;;101.32;32.70;;;;;;;;;;5050122;28;20430;-87
2022/11/30 12:32:01;;;;;;;105.90;31.77;;;;;;;;;;5055451;28;20907;-83
2022/11/30 12:34:37;;;;;;;96.60;33.60;;;;;;;;;;5069068;28;20437;-84
2022/11/30 12:37:09;;;;;;;97.70;32.70;;;;;;;;;;5051471;28;20438;-84
2022/11/30 12:39:43;;;;;;;97.13;32.92;;;;;;;;;;5053103;28;20954;-86
2022/11/30 12:42:15;;;;;;;105.03;33.67;;;;;;;;;;5048750;28;20974;-85
2022/11/30 12:44:52;;;;;;;104.80;33.70;;;;;;;;;;5053442;28;20442;-83
2022/11/30 12:47:30;;;;;;;109.43;34.72;;;;;;;;;;5054475;28;21051;-88
2022/11/30 12:50:07;;;;;;;96.15;33.60;;;;;;;;;;5055265;28;20438;-89
2022/11/30 12:52:40;;;;;;;95.43;32.97;;;;;;;;;;5053393;28;21811;-84
2022/11/30 12:55:14;;;;;;;109.60;34.35;;;;;;;;;;5055790;28;20450;-86
2022/11/30 12:57:47;;;;;;;93.78;32.65;;;;;;;;;;5048744;28;20423;-86
2022/11/30 13:00:21;;;;;;;96.43;33.00;;;;;;;;;;5053236;28;20427;-84
2022/11/30 13:03:09;;;;;;;91.57;32.17;;;;;;;;;;5051540;28;20435;-87
2022/11/30 13:05:38;;;;;;;92.90;33.35;;;;;;;;;;5049778;28;20455;-86
2022/11/30 13:08:12;;;;;;;97.15;33.08;;;;;;;;;;5072922;28;20432;-87
2022/11/30 13:10:46;;;;;;;99.82;34.53;;;;;;;;;;5054691;28;20438;-84
2022/11/30 13:13:24;;;;;;;91.15;32.53;;;;;;;;;;5053335;28;20439;-89
2022/11/30 13:15:52;;;;;;;94.25;32.28;;;;;;;;;;5049230;28;21295;-88
2022/11/30 13:18:21;;;;;;;91.50;33.03;;;;;;;;;;5046670;28;20439;-89
2022/11/30 13:20:55;;;;;;;88.78;31.85;;;;;;;;;;5049306;28;20436;-89
2022/11/30 13:23:34;;;;;;;82.65;32.45;;;;;;;;;;5050791;28;20791;-86
2022/11/30 13:26:05;;;;;;;93.43;34.10;;;;;;;;;;5027323;28;21167;-86
2022/11/30 13:28:39;;;;;;;83.77;31.17;;;;;;;;;;5051126;28;20427;-86
2022/11/30 13:31:08;;;;;;;86.47;31.80;;;;;;;;;;5057210;28;21125;-89
2022/11/30 13:33:49;;;;;;;93.15;33.00;;;;;;;;;;5051458;28;20415;-88
2022/11/30 13:36:37;;;;;;;90.43;32.97;;;;;;;;;;5054932;28;20900;-87
2022/11/30 13:39:28;;;;;;;88.13;32.60;;;;;;;;;;5048425;28;20427;-86
2022/11/30 13:42:14;;;;;;;95.32;36.28;;;;;;;;;;5050752;28;21118;-84
2022/11/30 13:44:44;;;;;;;92.35;33.75;;;;;;;;;;5053413;28;20459;-87
2022/11/30 13:47:17;;;;;;;85.72;31.88;;;;;;;;;;5066344;28;20455;-88
2022/11/30 13:49:54;;;;;;;100.53;33.58;;;;;;;;;;5048942;28;20954;-86
2022/11/30 13:52:37;;;;;;;91.68;32.95;;;;;;;;;;5052391;28;20430;-87
2022/11/30 13:55:35;;;;;;;94.35;33.40;;;;;;;;;;5048530;28;20423;-86
2022/11/30 13:58:08;;;;;;;99.03;33.58;;;;;;;;;;5052883;28;20407;-88
2022/11/30 14:00:47;;;;;;;93.45;31.88;;;;;;;;;;5052482;28;20428;-89
2022/11/30 14:03:23;;;;;;;89.70;32.30;;;;;;;;;;5055114;28;20419;-85
2022/11/30 14:05:57;;;;;;;90.53;33.45;;;;;;;;;;5051676;28;20427;-87
2022/11/30 14:08:31;;;;;;;108.38;35.85;;;;;;;;;;5056556;28;20780;-89
2022/11/30 14:11:17;;;;;;;102.55;34.03;;;;;;;;;;5057144;28;20426;-85
2022/11/30 14:13:45;;;;;;;89.53;33.35;;;;;;;;;;5053233;28;20427;-84
2022/11/30 14:16:22;;;;;;;99.93;33.58;;;;;;;;;;5058237;28;20427;-86
2022/11/30 14:18:50;;;;;;;105.45;34.67;;;;;;;;;;5049845;28;20592;-87
2022/11/30 14:21:26;;;;;;;107.60;34.97;;;;;;;;;;5050006;28;20427;-89
2022/11/30 14:23:56;;;;;;;111.38;35.22;;;;;;;;;;5045724;28;20444;-89
2022/11/30 14:26:27;;;;;;;99.60;34.10;;;;;;;;;;5020661;28;22267;-86
2022/11/30 14:29:04;;;;;;;107.35;36.22;;;;;;;;;;5056094;28;20427;-85
2022/11/30 14:31:37;;;;;;;106.47;35.15;;;;;;;;;;5052613;28;20424;-87
2022/11/30 14:34:14;;;;;;;114.35;35.22;;;;;;;;;;5047439;28;20428;-88
2022/11/30 14:36:45;;;;;;;106.50;35.53;;;;;;;;;;5047518;28;21402;-88
2022/11/30 14:39:32;;;;;;;121.87;37.07;;;;;;;;;;5048599;28;20442;-88
2022/11/30 14:42:06;;;;;;;120.17;37.20;;;;;;;;;;5051641;28;20515;-87
2022/11/30 14:44:35;;;;;;;110.32;36.42;;;;;;;;;;5048826;28;20439;-89